Time;durP1;ratioP1;P1;durP2;ratioP2;P2;SDS_P1;SDS_P2;PMS_P1;PMS_P2;Temp;Humidity;BMP_temperature;BMP_pressure;BME280_temperature;BME280_humidity;BME280_pressure;Samples;Min_cycle;Max_cycle;Signal;HPM_P1;HPM_P2
2023/04/15 00:00:15;;;;;;;15.73;8.10;;;5.60;99.90;;;;;;5051229;28;20494;-64
2023/04/15 00:02:40;;;;;;;16.13;7.88;;;5.60;99.90;;;;;;5051574;28;20137;-64
2023/04/15 00:05:06;;;;;;;14.38;7.57;;;5.60;99.90;;;;;;5051868;28;20247;-64
2023/04/15 00:07:32;;;;;;;18.02;8.07;;;5.60;99.90;;;;;;5051580;28;20033;-64
2023/04/15 00:09:58;;;;;;;14.93;8.68;;;5.60;99.90;;;;;;5052340;28;20075;-64
2023/04/15 00:12:27;;;;;;;14.82;7.90;;;5.60;99.90;;;;;;5051371;28;20047;-64
2023/04/15 00:14:53;;;;;;;14.70;8.13;;;5.60;99.90;;;;;;5051575;28;20134;-64
2023/04/15 00:17:19;;;;;;;18.27;7.55;;;5.60;99.90;;;;;;5054879;28;20037;-63
2023/04/15 00:19:44;;;;;;;16.20;7.72;;;5.60;99.90;;;;;;5051825;28;20094;-64
2023/04/15 00:22:11;;;;;;;13.25;8.18;;;5.50;99.90;;;;;;5051384;28;20468;-64
2023/04/15 00:24:36;;;;;;;16.88;7.90;;;5.50;99.90;;;;;;5051642;28;20159;-64
2023/04/15 00:27:03;;;;;;;17.60;8.15;;;5.60;99.90;;;;;;5051582;28;20071;-64
2023/04/15 00:29:29;;;;;;;14.70;7.95;;;5.60;99.90;;;;;;5051730;28;20531;-64
2023/04/15 00:31:55;;;;;;;20.88;7.95;;;5.60;99.90;;;;;;5052122;28;20405;-64
2023/04/15 00:34:21;;;;;;;17.45;7.55;;;5.60;99.90;;;;;;5050988;28;20047;-64
2023/04/15 00:36:47;;;;;;;14.10;7.68;;;5.50;99.90;;;;;;5050699;28;20048;-64
2023/04/15 00:39:13;;;;;;;15.52;7.82;;;5.50;99.90;;;;;;5049902;28;20387;-64
2023/04/15 00:41:38;;;;;;;14.75;7.35;;;5.50;99.90;;;;;;5052440;28;20072;-64
2023/04/15 00:44:08;;;;;;;19.05;8.85;;;5.40;99.90;;;;;;5054554;28;20037;-64
2023/04/15 00:46:37;;;;;;;15.95;7.82;;;5.40;99.90;;;;;;5055088;28;20461;-64
2023/04/15 00:49:06;;;;;;;13.55;7.68;;;5.40;99.90;;;;;;5049993;28;20132;-64
2023/04/15 00:51:34;;;;;;;16.65;7.40;;;5.30;99.90;;;;;;5056275;28;20041;-64
2023/04/15 00:54:03;;;;;;;16.42;8.07;;;5.30;99.90;;;;;;5055176;28;20044;-64
2023/04/15 00:56:29;;;;;;;15.68;7.88;;;5.20;99.90;;;;;;5054500;28;20109;-64
2023/04/15 00:58:56;;;;;;;16.10;8.30;;;5.20;99.90;;;;;;5054876;28;20542;-64
2023/04/15 01:01:24;;;;;;;15.07;7.55;;;5.20;99.90;;;;;;5050873;28;20480;-64
2023/04/15 01:07:30;;;;;;;14.90;7.72;;;5.10;99.90;;;;;;5055769;28;20482;-64
2023/04/15 01:09:56;;;;;;;15.82;7.90;;;5.00;99.90;;;;;;5054497;28;20036;-64
2023/04/15 01:12:25;;;;;;;18.77;8.15;;;4.90;99.90;;;;;;5058807;28;20430;-64
2023/04/15 01:14:50;;;;;;;13.23;7.45;;;4.90;99.90;;;;;;5054619;28;20071;-64
2023/04/15 01:17:16;;;;;;;15.65;7.82;;;4.90;99.90;;;;;;5054893;28;20061;-64
2023/04/15 01:19:42;;;;;;;21.65;8.13;;;4.90;99.90;;;;;;5054340;28;20043;-64
2023/04/15 01:22:08;;;;;;;15.68;8.43;;;4.90;99.90;;;;;;5055420;28;20470;-64
2023/04/15 01:24:35;;;;;;;16.92;7.90;;;4.90;99.90;;;;;;5070853;28;20480;-64
2023/04/15 01:27:01;;;;;;;15.60;8.52;;;4.90;99.90;;;;;;5053811;28;20476;-65
2023/04/15 01:29:26;;;;;;;19.10;8.38;;;4.90;99.90;;;;;;5054095;28;20124;-65
2023/04/15 01:31:54;;;;;;;18.20;8.57;;;4.90;99.90;;;;;;5055097;28;20041;-64
2023/04/15 01:34:21;;;;;;;16.38;7.90;;;4.90;99.90;;;;;;5053711;28;20419;-64
2023/04/15 01:36:46;;;;;;;16.80;8.27;;;4.90;99.90;;;;;;5053675;28;20182;-64
2023/04/15 01:46:25;;;;;;;14.80;8.15;;;4.80;99.90;;;;;;5070887;28;20515;-65
2023/04/15 01:52:31;;;;;;;17.60;8.20;;;4.70;99.90;;;;;;5054642;28;20060;-64
2023/04/15 01:54:57;;;;;;;17.67;8.80;;;4.70;99.90;;;;;;5066702;28;20041;-64
2023/04/15 01:57:23;;;;;;;18.13;9.10;;;4.70;99.90;;;;;;5053544;28;20053;-64
2023/04/15 01:59:48;;;;;;;20.85;8.73;;;4.70;99.90;;;;;;5053111;28;20048;-64
2023/04/15 02:02:14;;;;;;;17.98;8.43;;;4.70;99.90;;;;;;5054268;28;20045;-64
2023/04/15 02:04:39;;;;;;;20.65;9.20;;;4.60;99.90;;;;;;5053540;28;20064;-65
2023/04/15 02:07:15;;;;;;;16.33;8.88;;;4.60;99.90;;;;;;5053150;28;20480;-64
2023/04/15 02:09:42;;;;;;;22.10;9.20;;;4.60;99.90;;;;;;5053041;28;20443;-64
2023/04/15 02:12:08;;;;;;;15.48;8.80;;;4.60;99.90;;;;;;5048971;28;20391;-64
2023/04/15 02:14:34;;;;;;;17.85;9.50;;;4.60;99.90;;;;;;5054064;28;20033;-64
2023/04/15 02:17:06;;;;;;;17.25;9.00;;;4.50;99.90;;;;;;5052272;28;20480;-64
2023/04/15 02:19:32;;;;;;;20.50;9.38;;;4.50;99.90;;;;;;5036184;28;20470;-64
2023/04/15 02:21:57;;;;;;;17.48;9.43;;;4.50;99.90;;;;;;5052347;28;20048;-65
2023/04/15 02:24:23;;;;;;;18.73;9.43;;;4.50;99.90;;;;;;5052220;28;20366;-64
2023/04/15 02:26:48;;;;;;;15.60;9.25;;;4.50;99.90;;;;;;5052338;28;20044;-64
2023/04/15 02:29:14;;;;;;;16.88;8.93;;;4.50;99.90;;;;;;5053495;28;20033;-65
2023/04/15 02:31:41;;;;;;;18.55;9.15;;;4.50;99.90;;;;;;5052761;28;20396;-64
2023/04/15 02:34:07;;;;;;;18.35;9.48;;;4.40;99.90;;;;;;5052834;28;20116;-64
2023/04/15 02:36:33;;;;;;;20.25;9.95;;;4.40;99.90;;;;;;5050873;28;20544;-65
2023/04/15 02:38:59;;;;;;;16.67;9.60;;;4.50;99.90;;;;;;5053155;28;20360;-64
2023/04/15 02:41:27;;;;;;;18.75;9.48;;;4.40;99.90;;;;;;5052445;28;20049;-64
2023/04/15 02:43:53;;;;;;;20.08;9.93;;;4.40;99.90;;;;;;5052509;28;20040;-64
2023/04/15 02:46:18;;;;;;;20.85;10.20;;;4.50;99.90;;;;;;5052227;28;20041;-64
2023/04/15 02:48:44;;;;;;;19.42;9.48;;;4.40;99.90;;;;;;5052941;28;20040;-64
2023/04/15 02:51:14;;;;;;;21.10;10.13;;;4.40;99.90;;;;;;5056206;28;20040;-64
2023/04/15 02:53:40;;;;;;;19.65;9.57;;;4.40;99.90;;;;;;5050831;28;20120;-64
2023/04/15 02:56:07;;;;;;;18.63;9.65;;;4.40;99.90;;;;;;5052925;28;20037;-64
2023/04/15 02:58:33;;;;;;;21.38;10.52;;;4.40;99.90;;;;;;5049811;28;20128;-64
2023/04/15 03:00:59;;;;;;;20.52;10.30;;;4.30;99.90;;;;;;5050126;28;20130;-64
2023/04/15 03:03:26;;;;;;;20.85;9.98;;;4.30;99.90;;;;;;5052019;28;20472;-64
2023/04/15 03:05:52;;;;;;;20.55;9.50;;;4.30;99.90;;;;;;5051205;28;20056;-64
2023/04/15 03:08:18;;;;;;;23.38;10.90;;;4.20;99.90;;;;;;5067488;28;20033;-64
2023/04/15 03:10:43;;;;;;;22.00;9.95;;;4.20;99.90;;;;;;5051352;28;20452;-64
2023/04/15 03:13:09;;;;;;;21.70;10.10;;;4.20;99.90;;;;;;5051757;28;20123;-64
2023/04/15 03:15:35;;;;;;;19.08;10.00;;;4.20;99.90;;;;;;5035104;28;20047;-64
2023/04/15 03:18:00;;;;;;;20.70;10.93;;;4.20;99.90;;;;;;5051548;28;20472;-64
2023/04/15 03:20:26;;;;;;;21.23;11.02;;;4.10;99.90;;;;;;5056602;28;20131;-64
2023/04/15 03:23:09;;;;;;;25.48;10.85;;;4.10;99.90;;;;;;5048039;28;20489;-65
2023/04/15 03:25:36;;;;;;;21.00;11.55;;;4.10;99.90;;;;;;5048789;28;20124;-65
2023/04/15 03:28:02;;;;;;;24.73;11.85;;;4.10;99.90;;;;;;5052151;28;20506;-65
2023/04/15 03:30:27;;;;;;;20.92;10.98;;;4.00;99.90;;;;;;5052316;28;20037;-64
2023/04/15 03:32:53;;;;;;;24.95;11.82;;;4.00;99.90;;;;;;5051925;28;20044;-64
2023/04/15 03:35:19;;;;;;;15.90;9.43;;;4.00;99.90;;;;;;5052990;28;20135;-64
2023/04/15 03:37:44;;;;;;;21.33;10.55;;;3.90;99.90;;;;;;5046842;28;20120;-64
2023/04/15 03:40:10;;;;;;;20.73;10.98;;;3.90;99.90;;;;;;5052987;28;20055;-64
2023/04/15 03:42:35;;;;;;;22.27;9.75;;;3.80;99.90;;;;;;5051689;28;20492;-64
2023/04/15 03:45:01;;;;;;;20.20;9.70;;;3.70;99.90;;;;;;5051035;28;20033;-64
2023/04/15 03:47:26;;;;;;;20.27;10.02;;;3.60;99.90;;;;;;5067654;28;20033;-64
2023/04/15 03:49:52;;;;;;;16.95;10.13;;;3.60;99.90;;;;;;5047262;28;20496;-64
2023/04/15 03:55:58;;;;;;;17.88;9.30;;;3.50;99.90;;;;;;5051455;28;20120;-64
2023/04/15 03:58:24;;;;;;;19.58;9.43;;;3.40;99.90;;;;;;5050215;28;20131;-65
2023/04/15 04:00:50;;;;;;;19.02;11.13;;;3.40;99.90;;;;;;5050286;28;20065;-64
2023/04/15 04:03:16;;;;;;;17.05;10.30;;;3.30;99.90;;;;;;5050972;28;20078;-64
2023/04/15 04:05:43;;;;;;;23.33;11.75;;;3.30;99.90;;;;;;5051046;28;20166;-64
2023/04/15 04:08:08;;;;;;;23.70;11.30;;;3.30;99.90;;;;;;5046648;28;20068;-65
2023/04/15 04:10:34;;;;;;;24.45;11.65;;;3.30;99.90;;;;;;5049800;28;20448;-64
2023/04/15 04:13:00;;;;;;;20.98;11.23;;;3.30;99.90;;;;;;5048350;28;20055;-64
2023/04/15 04:15:26;;;;;;;22.65;11.55;;;3.30;99.90;;;;;;5051357;28;20074;-65
2023/04/15 04:17:52;;;;;;;24.98;11.35;;;3.20;99.90;;;;;;5053185;28;20448;-65
2023/04/15 04:20:17;;;;;;;25.90;11.77;;;3.30;99.90;;;;;;5055176;28;20135;-64
2023/04/15 04:22:43;;;;;;;25.52;12.35;;;3.40;99.90;;;;;;5038664;28;20123;-64
2023/04/15 04:25:09;;;;;;;28.38;13.27;;;3.40;99.90;;;;;;5055648;28;20123;-64
2023/04/15 04:27:35;;;;;;;23.45;12.90;;;3.40;99.90;;;;;;5055950;28;20469;-64
2023/04/15 04:30:01;;;;;;;27.83;12.50;;;3.40;99.90;;;;;;5053465;28;20111;-65
2023/04/15 04:32:26;;;;;;;24.77;12.32;;;3.40;99.90;;;;;;5054163;28;20120;-65
2023/04/15 04:34:52;;;;;;;25.30;12.38;;;3.40;99.90;;;;;;5054207;28;20052;-65
2023/04/15 04:37:17;;;;;;;29.77;13.63;;;3.40;99.90;;;;;;5037671;28;20041;-64
2023/04/15 04:39:43;;;;;;;24.20;13.13;;;3.40;99.90;;;;;;5053792;28;20507;-65
2023/04/15 04:42:08;;;;;;;26.90;13.35;;;3.40;99.90;;;;;;5053725;28;20510;-65
2023/04/15 04:44:34;;;;;;;27.88;13.40;;;3.40;99.90;;;;;;5053451;28;20041;-65
2023/04/15 04:46:59;;;;;;;26.42;13.93;;;3.30;99.90;;;;;;5053933;28;20041;-65
2023/04/15 04:49:25;;;;;;;27.15;13.27;;;3.30;99.90;;;;;;5054063;28;20060;-65
2023/04/15 04:51:51;;;;;;;28.58;13.23;;;3.30;99.90;;;;;;5054521;28;20075;-65
2023/04/15 04:54:17;;;;;;;27.35;12.90;;;3.40;99.90;;;;;;5055143;28;20044;-65
2023/04/15 04:56:42;;;;;;;24.35;12.82;;;3.40;99.90;;;;;;5053474;28;20563;-65
2023/04/15 04:59:08;;;;;;;29.05;14.45;;;3.40;99.90;;;;;;5053997;28;20049;-65
2023/04/15 05:01:34;;;;;;;31.90;14.65;;;3.40;99.90;;;;;;5053779;28;20484;-65
2023/04/15 05:04:00;;;;;;;27.45;13.63;;;3.40;99.90;;;;;;5054122;28;21701;-65
2023/04/15 05:13:47;;;;;;;29.95;13.18;;;3.50;99.90;;;;;;5053476;28;20040;-65
2023/04/15 05:16:12;;;;;;;24.20;12.95;;;3.50;99.90;;;;;;5053144;28;20029;-65
2023/04/15 05:18:38;;;;;;;27.52;13.13;;;3.60;99.90;;;;;;5054629;28;20047;-65
2023/04/15 05:21:04;;;;;;;29.35;13.35;;;3.60;99.90;;;;;;5051854;28;20040;-65
2023/04/15 05:23:29;;;;;;;29.70;14.02;;;3.70;99.90;;;;;;5053155;28;20037;-65
2023/04/15 05:25:55;;;;;;;28.05;13.43;;;3.80;99.90;;;;;;5050595;28;20040;-65
2023/04/15 05:28:20;;;;;;;27.40;13.55;;;3.90;99.90;;;;;;5066247;28;20036;-65
2023/04/15 05:30:46;;;;;;;27.80;13.65;;;3.90;99.90;;;;;;5054650;28;20037;-65
2023/04/15 05:33:12;;;;;;;27.60;13.68;;;4.00;99.90;;;;;;5054416;28;20041;-64
2023/04/15 05:35:37;;;;;;;30.25;14.27;;;4.10;99.90;;;;;;5052987;28;20043;-65
2023/04/15 05:38:03;;;;;;;26.45;13.23;;;4.10;99.90;;;;;;5053951;28;20068;-65
2023/04/15 05:40:30;;;;;;;28.88;13.88;;;4.10;99.90;;;;;;5053425;28;20069;-65
2023/04/15 05:42:55;;;;;;;26.98;12.10;;;4.20;99.90;;;;;;5051066;28;20076;-65
2023/04/15 05:45:21;;;;;;;27.05;13.63;;;4.30;99.90;;;;;;5062280;28;20073;-65
2023/04/15 05:47:49;;;;;;;24.23;13.23;;;4.30;99.90;;;;;;5053475;28;20100;-65
2023/04/15 05:50:14;;;;;;;27.55;12.82;;;4.40;99.90;;;;;;5050658;28;20151;-65
2023/04/15 05:52:40;;;;;;;27.58;13.35;;;4.50;99.90;;;;;;5053487;28;20509;-65
2023/04/15 05:55:06;;;;;;;26.67;13.27;;;4.50;99.90;;;;;;5053322;28;20052;-65
2023/04/15 05:57:32;;;;;;;31.52;14.23;;;4.60;99.90;;;;;;5053387;28;20045;-65
2023/04/15 05:59:57;;;;;;;27.08;13.25;;;4.60;99.90;;;;;;5052664;28;20436;-65
2023/04/15 06:02:24;;;;;;;30.05;13.88;;;4.70;99.90;;;;;;5052715;28;20037;-66
2023/04/15 06:04:49;;;;;;;29.13;13.70;;;4.80;99.90;;;;;;5051149;28;20158;-65
2023/04/15 06:07:15;;;;;;;29.05;13.40;;;4.80;99.90;;;;;;5052944;28;20127;-66
2023/04/15 06:09:40;;;;;;;26.00;13.10;;;4.80;99.90;;;;;;5049996;28;20112;-64
2023/04/15 06:12:10;;;;;;;28.48;14.00;;;4.90;99.90;;;;;;5052590;28;20488;-65
2023/04/15 06:14:37;;;;;;;28.10;13.82;;;4.90;99.90;;;;;;5054489;28;20143;-64
2023/04/15 06:17:02;;;;;;;29.67;14.35;;;4.90;99.90;;;;;;5055593;28;20405;-65
2023/04/15 06:19:28;;;;;;;28.42;13.70;;;5.10;99.90;;;;;;5052776;28;20056;-65
2023/04/15 06:21:54;;;;;;;27.02;12.63;;;5.10;99.90;;;;;;5053123;28;20041;-65
2023/04/15 06:24:19;;;;;;;26.63;13.68;;;5.10;99.90;;;;;;5053342;28;20094;-64
2023/04/15 06:26:45;;;;;;;28.25;12.85;;;5.20;99.90;;;;;;5053481;28;20048;-66
2023/04/15 06:29:10;;;;;;;26.85;13.10;;;5.20;99.90;;;;;;5052876;28;20045;-65
2023/04/15 06:31:36;;;;;;;28.90;13.60;;;5.30;99.90;;;;;;5045983;28;20527;-65
2023/04/15 06:34:01;;;;;;;26.27;13.18;;;5.30;99.90;;;;;;5035960;28;20044;-65
2023/04/15 06:36:27;;;;;;;26.38;13.40;;;5.40;99.90;;;;;;5053992;28;20127;-65
2023/04/15 06:38:52;;;;;;;28.38;13.75;;;5.40;99.90;;;;;;5053304;28;20037;-65
2023/04/15 06:41:18;;;;;;;26.85;13.70;;;5.50;99.90;;;;;;5053881;28;20060;-65
2023/04/15 06:43:44;;;;;;;25.75;12.70;;;5.60;99.90;;;;;;5052257;28;20056;-65
2023/04/15 06:46:52;;;;;;;25.50;13.73;;;5.70;99.90;;;;;;5051407;28;20124;-65
2023/04/15 06:49:17;;;;;;;28.25;13.38;;;5.90;99.90;;;;;;5051165;28;20064;-65
2023/04/15 06:51:43;;;;;;;30.63;15.00;;;6.00;99.90;;;;;;5051958;28;20036;-64
2023/04/15 06:54:08;;;;;;;23.20;11.63;;;6.20;99.90;;;;;;5053644;28;20040;-65
2023/04/15 06:56:34;;;;;;;29.42;14.82;;;6.30;99.90;;;;;;5051444;28;20043;-65
2023/04/15 06:59:17;;;;;;;32.20;15.25;;;6.60;99.90;;;;;;5052655;28;20396;-66
2023/04/15 07:01:43;;;;;;;23.38;10.90;;;6.80;99.90;;;;;;5068122;28;20522;-66
2023/04/15 07:04:09;;;;;;;28.02;13.85;;;7.00;99.90;;;;;;5047005;28;20084;-65
2023/04/15 07:06:35;;;;;;;28.08;12.50;;;7.20;99.90;;;;;;5052125;28;20484;-67
2023/04/15 07:09:03;;;;;;;26.88;13.70;;;7.40;99.90;;;;;;5052237;28;20095;-66
2023/04/15 07:11:37;;;;;;;26.67;14.38;;;7.60;99.90;;;;;;5051799;28;20052;-66
2023/04/15 07:14:02;;;;;;;28.58;13.98;;;7.70;99.90;;;;;;5050770;28;20033;-66
2023/04/15 07:16:29;;;;;;;27.80;13.65;;;7.80;99.90;;;;;;5050108;28;20037;-67
2023/04/15 07:18:54;;;;;;;18.75;8.93;;;8.00;99.90;;;;;;5050561;28;20036;-66
2023/04/15 07:21:20;;;;;;;26.58;13.57;;;8.10;99.90;;;;;;5049699;28;20048;-66
2023/04/15 07:23:46;;;;;;;22.80;11.15;;;8.30;99.90;;;;;;5050427;28;20033;-66
2023/04/15 07:26:11;;;;;;;24.23;12.68;;;8.40;99.90;;;;;;5050401;28;20392;-66
2023/04/15 07:28:37;;;;;;;23.83;11.95;;;8.60;99.90;;;;;;5047706;28;20389;-69
2023/04/15 07:31:03;;;;;;;20.50;10.20;;;8.70;99.90;;;;;;5050805;28;20396;-68
2023/04/15 07:33:28;;;;;;;24.45;10.93;;;8.90;99.90;;;;;;5069499;28;20045;-68
2023/04/15 07:35:54;;;;;;;22.50;12.38;;;9.00;99.90;;;;;;5052162;28;20045;-66
2023/04/15 07:38:19;;;;;;;20.33;8.13;;;9.10;99.90;;;;;;5052995;28;20179;-70
2023/04/15 07:40:45;;;;;;;23.48;11.68;;;9.30;99.90;;;;;;5046233;28;20045;-67
2023/04/15 07:43:12;;;;;;;20.85;11.60;;;9.40;99.90;;;;;;5059126;28;20041;-66
2023/04/15 07:45:37;;;;;;;22.80;10.13;;;9.40;99.90;;;;;;5050799;28;20055;-70
2023/04/15 07:48:03;;;;;;;21.52;12.25;;;9.50;99.90;;;;;;5045818;28;20032;-66
2023/04/15 07:50:29;;;;;;;21.45;10.98;;;9.60;99.90;;;;;;5056416;28;20036;-73
2023/04/15 07:52:55;;;;;;;17.77;9.15;;;9.70;99.90;;;;;;5058192;28;20380;-66
2023/04/15 07:55:22;;;;;;;20.38;10.23;;;9.70;99.90;;;;;;5055964;28;20047;-67
2023/04/15 07:57:48;;;;;;;21.60;11.40;;;9.70;99.90;;;;;;5051111;28;20055;-67
2023/04/15 08:00:15;;;;;;;20.70;10.85;;;9.90;99.90;;;;;;5050568;28;20116;-70
2023/04/15 08:02:41;;;;;;;18.95;10.82;;;9.90;99.90;;;;;;5049789;28;20076;-69
2023/04/15 08:05:08;;;;;;;20.08;10.30;;;10.00;99.90;;;;;;5050343;28;20446;-69
2023/04/15 08:07:35;;;;;;;17.70;9.00;;;10.00;99.90;;;;;;5047562;28;20089;-68
2023/04/15 08:10:01;;;;;;;16.15;9.00;;;10.10;99.90;;;;;;5050256;28;20037;-68
2023/04/15 08:12:27;;;;;;;14.10;6.10;;;10.10;99.90;;;;;;5033910;28;20045;-66
2023/04/15 08:14:54;;;;;;;15.82;8.23;;;10.20;99.90;;;;;;5049882;28;20041;-66
2023/04/15 08:17:20;;;;;;;12.75;5.97;;;10.20;99.90;;;;;;5052076;28;20047;-67
2023/04/15 08:19:47;;;;;;;16.15;7.95;;;10.20;99.90;;;;;;5049345;28;20037;-69
2023/04/15 08:22:12;;;;;;;17.73;9.27;;;10.30;99.90;;;;;;5052283;28;20045;-70
2023/04/15 08:24:38;;;;;;;15.93;9.20;;;10.20;99.90;;;;;;5051650;28;20447;-68
2023/04/15 08:27:04;;;;;;;19.42;9.05;;;10.20;99.90;;;;;;5047962;28;20079;-71
2023/04/15 08:29:33;;;;;;;14.20;6.75;;;10.30;99.90;;;;;;5048903;28;20041;-67
2023/04/15 08:32:00;;;;;;;16.13;8.35;;;10.40;99.90;;;;;;5057997;28;20041;-68
2023/04/15 08:34:26;;;;;;;21.38;8.90;;;10.40;99.90;;;;;;5048469;28;20056;-64
2023/04/15 08:36:52;;;;;;;12.50;5.78;;;10.50;99.90;;;;;;5053383;28;20063;-66
2023/04/15 08:39:18;;;;;;;16.33;8.10;;;10.60;99.90;;;;;;5058023;28;20135;-67
2023/04/15 08:42:01;;;;;;;16.30;7.68;;;10.70;99.90;;;;;;5064810;28;20127;-66
2023/04/15 08:44:33;;;;;;;16.85;8.40;;;10.80;99.90;;;;;;5053211;28;20044;-66
2023/04/15 08:47:04;;;;;;;15.82;7.32;;;10.80;99.90;;;;;;5046181;28;20044;-66
2023/04/15 08:49:31;;;;;;;13.07;7.38;;;10.90;99.90;;;;;;5037066;28;20043;-71
2023/04/15 08:52:01;;;;;;;13.25;6.70;;;11.00;99.90;;;;;;5050009;28;20048;-68
2023/04/15 08:54:27;;;;;;;12.13;6.90;;;11.00;99.90;;;;;;5062845;28;20033;-68
2023/04/15 08:56:53;;;;;;;15.65;7.35;;;11.10;99.90;;;;;;5044873;28;20045;-72
2023/04/15 08:59:20;;;;;;;10.73;6.10;;;11.10;99.90;;;;;;5050217;28;20060;-69
2023/04/15 09:01:48;;;;;;;12.00;5.15;;;11.10;99.90;;;;;;5047459;28;20041;-72
2023/04/15 09:04:13;;;;;;;11.45;5.70;;;11.00;99.90;;;;;;5047789;28;20037;-72
2023/04/15 09:06:40;;;;;;;9.43;5.20;;;11.00;99.90;;;;;;5051961;28;20044;-70
2023/04/15 09:09:05;;;;;;;9.15;5.25;;;11.00;99.90;;;;;;5046799;28;20045;-71
2023/04/15 09:11:31;;;;;;;10.60;5.85;;;11.00;99.90;;;;;;5044582;28;20053;-70
2023/04/15 09:13:56;;;;;;;9.85;5.43;;;11.10;99.90;;;;;;5030223;28;20357;-70
2023/04/15 09:16:22;;;;;;;8.68;4.25;;;11.00;99.90;;;;;;5043445;28;20037;-69
2023/04/15 09:18:48;;;;;;;11.48;4.70;;;11.00;99.90;;;;;;5044604;28;20118;-69
2023/04/15 09:21:16;;;;;;;7.72;4.18;;;11.00;99.90;;;;;;5048443;28;20057;-68
2023/04/15 09:23:55;;;;;;;6.15;3.65;;;10.90;99.90;;;;;;5047799;28;20041;-71
2023/04/15 09:26:30;;;;;;;6.35;2.75;;;11.00;99.90;;;;;;5046827;28;20060;-68
2023/04/15 09:29:04;;;;;;;5.82;4.13;;;11.00;99.90;;;;;;5048410;28;20147;-70
2023/04/15 09:31:30;;;;;;;7.93;4.00;;;11.10;99.90;;;;;;5047651;28;20374;-69
2023/04/15 09:33:55;;;;;;;6.35;4.22;;;11.10;99.90;;;;;;5043546;28;20388;-68
2023/04/15 09:36:21;;;;;;;7.25;4.10;;;11.00;99.90;;;;;;5050206;28;20070;-68
2023/04/15 09:38:58;;;;;;;10.80;5.03;;;11.00;99.90;;;;;;5050863;28;20807;-69
2023/04/15 09:41:24;;;;;;;8.85;4.15;;;10.80;99.90;;;;;;5048492;28;20056;-66
2023/04/15 09:43:50;;;;;;;9.07;3.90;;;10.80;99.90;;;;;;5047602;28;20048;-71
2023/04/15 09:46:16;;;;;;;5.85;3.60;;;10.70;99.90;;;;;;5048569;28;20041;-69
2023/04/15 09:48:41;;;;;;;7.28;3.42;;;10.70;99.90;;;;;;5046786;28;20082;-71
2023/04/15 09:51:07;;;;;;;5.85;3.42;;;10.80;99.90;;;;;;5052008;28;20126;-70
2023/04/15 09:53:34;;;;;;;6.55;2.80;;;10.70;99.90;;;;;;5052603;28;20048;-68
2023/04/15 09:56:01;;;;;;;6.05;3.20;;;10.70;99.90;;;;;;5053370;28;20055;-69
2023/04/15 09:58:29;;;;;;;5.95;3.25;;;10.60;99.90;;;;;;5063916;28;20052;-69
2023/04/15 10:00:56;;;;;;;5.63;3.55;;;10.60;99.90;;;;;;5055884;28;20032;-69
2023/04/15 10:03:24;;;;;;;6.95;2.78;;;10.70;99.90;;;;;;5064146;28;20629;-71
2023/04/15 10:05:52;;;;;;;5.90;3.13;;;10.60;99.90;;;;;;5051733;28;20629;-69
2023/04/15 10:08:20;;;;;;;7.07;3.38;;;10.60;99.90;;;;;;5057132;28;20121;-73
2023/04/15 10:10:47;;;;;;;6.95;3.58;;;10.60;99.90;;;;;;5049362;28;20044;-65
2023/04/15 10:13:23;;;;;;;7.78;4.03;;;10.50;99.90;;;;;;5056114;28;20045;-70
2023/04/15 10:16:05;;;;;;;7.43;4.13;;;10.40;99.90;;;;;;5042849;28;20040;-69
2023/04/15 10:18:34;;;;;;;8.70;4.22;;;10.30;99.90;;;;;;5049825;28;20087;-68
2023/04/15 10:21:00;;;;;;;8.07;4.15;;;10.30;99.90;;;;;;5069502;28;20044;-69
2023/04/15 10:23:27;;;;;;;6.32;3.00;;;10.30;99.90;;;;;;5048048;28;20041;-68
2023/04/15 10:25:53;;;;;;;5.80;3.53;;;10.30;99.90;;;;;;5050495;28;20422;-68
2023/04/15 10:28:21;;;;;;;10.38;4.40;;;10.40;99.90;;;;;;5048017;28;20048;-65
2023/04/15 10:30:48;;;;;;;8.38;3.63;;;10.40;99.90;;;;;;5047921;28;20047;-65
2023/04/15 10:33:16;;;;;;;8.00;3.17;;;10.40;99.90;;;;;;5047260;28;20567;-70
2023/04/15 10:35:43;;;;;;;8.63;3.15;;;10.50;99.90;;;;;;5042324;28;20395;-65
2023/04/15 10:38:31;;;;;;;6.20;3.13;;;10.50;99.90;;;;;;5043920;28;20049;-65
2023/04/15 10:41:23;;;;;;;8.00;2.70;;;10.60;99.90;;;;;;5045612;28;20037;-66
2023/04/15 10:43:54;;;;;;;8.38;3.20;;;10.70;99.90;;;;;;5044712;28;20090;-68
2023/04/15 10:46:33;;;;;;;12.25;3.40;;;10.80;99.90;;;;;;5042781;28;20052;-67
2023/04/15 10:49:10;;;;;;;5.80;1.88;;;10.90;99.90;;;;;;5042815;28;20037;-67
2023/04/15 10:51:40;;;;;;;7.25;2.53;;;10.90;99.90;;;;;;5047647;28;20049;-67
2023/04/15 10:54:15;;;;;;;6.70;2.90;;;10.90;99.90;;;;;;5048500;28;20395;-66
2023/04/15 10:56:44;;;;;;;5.88;2.40;;;10.90;99.90;;;;;;5053465;28;20033;-66
2023/04/15 10:59:10;;;;;;;5.25;2.38;;;10.90;99.90;;;;;;5061676;28;20123;-65
2023/04/15 11:01:58;;;;;;;4.80;2.30;;;11.00;99.90;;;;;;5047797;28;20132;-67
2023/04/15 11:04:51;;;;;;;6.10;2.38;;;11.00;99.90;;;;;;5054450;28;20103;-66
2023/04/15 11:07:40;;;;;;;5.65;2.13;;;11.10;99.90;;;;;;5047662;28;20053;-68
2023/04/15 11:10:24;;;;;;;5.05;1.95;;;11.10;99.90;;;;;;5041643;28;20052;-67
2023/04/15 11:12:52;;;;;;;3.20;1.25;;;11.20;99.90;;;;;;5051473;28;20076;-67
2023/04/15 11:15:32;;;;;;;3.58;1.98;;;11.20;99.90;;;;;;5054437;28;20055;-67
2023/04/15 11:18:13;;;;;;;2.25;1.58;;;11.10;99.90;;;;;;5033067;28;20049;-69
2023/04/15 11:20:44;;;;;;;4.32;1.80;;;11.10;99.90;;;;;;5064981;28;20536;-66
2023/04/15 11:23:11;;;;;;;3.63;1.85;;;11.20;99.90;;;;;;5048641;28;20119;-67
2023/04/15 11:25:36;;;;;;;2.50;2.00;;;11.20;99.90;;;;;;5045932;28;20135;-69
2023/04/15 11:28:03;;;;;;;3.28;1.80;;;11.30;99.90;;;;;;5048639;28;20135;-68
2023/04/15 11:30:32;;;;;;;3.33;1.70;;;11.30;99.90;;;;;;5042204;28;20059;-68
2023/04/15 11:33:01;;;;;;;3.70;1.98;;;11.40;99.90;;;;;;5049336;28;20033;-63
2023/04/15 11:35:27;;;;;;;2.10;1.48;;;11.40;99.90;;;;;;5062418;28;20044;-66
2023/04/15 11:37:53;;;;;;;3.45;1.95;;;11.20;99.90;;;;;;5050536;28;20080;-66
2023/04/15 11:40:24;;;;;;;3.90;2.00;;;11.10;99.90;;;;;;5049478;28;20144;-64
2023/04/15 11:43:08;;;;;;;4.20;1.80;;;11.00;99.90;;;;;;5053530;28;20059;-65
2023/04/15 11:45:35;;;;;;;4.80;1.83;;;10.80;99.90;;;;;;5052772;28;20107;-69
2023/04/15 11:48:12;;;;;;;5.70;2.17;;;10.60;99.90;;;;;;5049380;28;20171;-67
2023/04/15 11:50:39;;;;;;;5.13;2.42;;;10.50;99.90;;;;;;5036910;28;20373;-69
2023/04/15 11:53:07;;;;;;;4.95;1.80;;;10.40;99.90;;;;;;5052633;28;20384;-69
2023/04/15 11:55:46;;;;;;;2.92;2.10;;;10.40;99.90;;;;;;5053156;28;20052;-70
2023/04/15 11:58:18;;;;;;;5.43;2.58;;;10.40;99.90;;;;;;5049219;28;20128;-67
2023/04/15 12:00:48;;;;;;;4.75;2.47;;;10.40;99.90;;;;;;5064118;28;20071;-69
2023/04/15 12:03:26;;;;;;;5.45;2.08;;;10.40;99.90;;;;;;5049508;28;20051;-70
2023/04/15 12:06:11;;;;;;;7.85;2.97;;;10.40;99.90;;;;;;5056563;28;20532;-66
2023/04/15 12:08:59;;;;;;;6.35;2.47;;;10.40;99.90;;;;;;5046746;28;20424;-73
2023/04/15 12:11:31;;;;;;;3.50;2.10;;;10.30;99.90;;;;;;5043503;28;20230;-65
2023/04/15 12:14:05;;;;;;;5.15;2.03;;;10.40;99.90;;;;;;5030649;28;20064;-66
2023/04/15 12:16:40;;;;;;;5.80;1.92;;;10.40;99.90;;;;;;5046566;28;20743;-68
2023/04/15 12:19:21;;;;;;;5.28;2.40;;;10.40;99.90;;;;;;5050895;28;20041;-70
2023/04/15 12:21:48;;;;;;;5.55;2.20;;;10.40;99.90;;;;;;5056996;28;20127;-69
2023/04/15 12:24:20;;;;;;;5.00;2.00;;;10.40;99.90;;;;;;5049936;28;20481;-70
2023/04/15 12:26:47;;;;;;;5.63;2.55;;;10.40;99.90;;;;;;5055152;28;20037;-68
2023/04/15 12:29:15;;;;;;;7.72;2.92;;;10.40;99.90;;;;;;5045837;28;20550;-68
2023/04/15 12:31:52;;;;;;;4.65;1.80;;;10.40;99.90;;;;;;5038567;28;20048;-72
2023/04/15 12:34:26;;;;;;;4.63;2.60;;;10.50;99.90;;;;;;5051477;28;20124;-72
2023/04/15 12:36:52;;;;;;;4.47;2.55;;;10.40;99.90;;;;;;5064798;28;20472;-69
2023/04/15 12:39:21;;;;;;;7.72;2.55;;;10.40;99.90;;;;;;5059087;28;20040;-67
2023/04/15 12:41:47;;;;;;;10.73;3.33;;;10.40;99.90;;;;;;5054809;28;20444;-70
2023/04/15 12:44:12;;;;;;;8.82;2.45;;;10.30;99.90;;;;;;5058609;28;20179;-69
2023/04/15 12:46:40;;;;;;;4.50;2.47;;;10.30;99.90;;;;;;5066891;28;20049;-71
2023/04/15 12:49:05;;;;;;;5.60;2.50;;;10.30;99.90;;;;;;5041871;28;20041;-71
2023/04/15 12:51:31;;;;;;;3.40;2.25;;;10.40;99.90;;;;;;5054966;28;20045;-70
2023/04/15 12:53:57;;;;;;;9.25;2.83;;;10.40;99.90;;;;;;5053167;28;20099;-69
2023/04/15 12:56:23;;;;;;;7.50;3.63;;;10.60;99.90;;;;;;5043659;28;20080;-71
2023/04/15 12:58:48;;;;;;;8.50;2.97;;;10.50;99.90;;;;;;5049024;28;20044;-66
2023/04/15 13:01:14;;;;;;;8.27;3.05;;;10.50;99.90;;;;;;5050278;28;20507;-68
2023/04/15 13:03:39;;;;;;;7.43;3.05;;;10.40;99.90;;;;;;5071569;28;20040;-71
2023/04/15 13:06:05;;;;;;;11.20;3.17;;;10.40;99.90;;;;;;5057425;28;20080;-68
2023/04/15 13:08:31;;;;;;;4.63;2.15;;;10.40;99.90;;;;;;5050516;28;20425;-72
2023/04/15 13:10:57;;;;;;;8.82;2.50;;;10.40;99.90;;;;;;5058526;28;20427;-71